Time;durP1;ratioP1;P1;durP2;ratioP2;P2;SDS_P1;SDS_P2;PMS_P1;PMS_P2;Temp;Humidity;BMP_temperature;BMP_pressure;BME280_temperature;BME280_humidity;BME280_pressure;Samples;Min_cycle;Max_cycle;Signal;HPM_P1;HPM_P2
2022/01/20 00:02:06;;;;;;;6.70;5.60;;;4.90;99.90;;;;;;5044071;28;20459;-90
2022/01/20 00:04:42;;;;;;;5.77;5.20;;;4.90;99.90;;;;;;5047600;28;20509;-90
2022/01/20 00:26:44;;;;;;;6.07;4.63;;;4.70;99.90;;;;;;5029096;28;20420;-88
2022/01/20 00:29:19;;;;;;;6.33;4.70;;;4.70;99.90;;;;;;5047356;28;20459;-89
2022/01/20 00:32:01;;;;;;;5.67;4.43;;;4.80;99.90;;;;;;5047203;28;20477;-90
2022/01/20 00:34:42;;;;;;;5.60;4.30;;;4.80;99.90;;;;;;5057070;28;20440;-90
2022/01/20 00:37:15;;;;;;;5.13;4.33;;;4.80;99.90;;;;;;5046533;28;20479;-90
2022/01/20 00:39:42;;;;;;;4.23;3.77;;;4.80;99.90;;;;;;5048886;28;20457;-90
2022/01/20 00:42:10;;;;;;;4.80;4.17;;;4.80;99.90;;;;;;5046847;28;20452;-89
2022/01/20 00:44:37;;;;;;;3.93;3.63;;;4.80;99.90;;;;;;5049351;28;20462;-89
2022/01/20 00:47:05;;;;;;;5.43;4.23;;;4.80;99.90;;;;;;5056845;28;20503;-89
2022/01/20 00:49:31;;;;;;;4.37;3.97;;;4.80;99.90;;;;;;5048093;28;20475;-89
2022/01/20 00:51:58;;;;;;;4.50;4.10;;;4.80;99.90;;;;;;5034454;28;20958;-89
2022/01/20 00:54:37;;;;;;;4.93;4.13;;;4.80;99.90;;;;;;5035026;28;20443;-90
2022/01/20 00:57:05;;;;;;;5.10;4.13;;;4.80;99.90;;;;;;5080304;28;20523;-90
2022/01/20 00:59:33;;;;;;;5.50;3.97;;;4.90;99.90;;;;;;5066311;28;20457;-90
2022/01/20 01:02:02;;;;;;;4.43;3.37;;;4.90;99.90;;;;;;5061833;28;20425;-91
2022/01/20 01:04:29;;;;;;;4.57;3.60;;;4.90;99.90;;;;;;5061665;28;20421;-89
2022/01/20 01:09:39;;;;;;;5.40;3.93;;;4.90;99.90;;;;;;5061027;28;20448;-90
2022/01/20 01:12:09;;;;;;;5.70;4.37;;;4.90;99.90;;;;;;5071469;28;20446;-91
2022/01/20 01:14:43;;;;;;;6.10;4.00;;;4.90;99.90;;;;;;5074323;28;20438;-88
2022/01/20 01:23:13;;;;;;;4.00;3.53;;;4.90;99.90;;;;;;5067494;28;20468;-88
2022/01/20 01:25:40;;;;;;;5.10;4.00;;;5.00;99.90;;;;;;5071211;28;20499;-89
2022/01/20 01:28:07;;;;;;;3.97;3.57;;;4.90;99.90;;;;;;5072010;28;20464;-88
2022/01/20 01:30:54;;;;;;;4.47;2.97;;;4.80;99.90;;;;;;5077790;28;20438;-89
2022/01/20 01:33:21;;;;;;;3.23;2.73;;;4.80;99.90;;;;;;5060873;28;20518;-88
2022/01/20 01:35:55;;;;;;;3.53;3.00;;;4.70;99.90;;;;;;5056265;28;20463;-88
2022/01/20 01:38:36;;;;;;;3.47;3.17;;;4.70;99.90;;;;;;5052985;28;20481;-88
2022/01/20 01:41:05;;;;;;;5.13;3.20;;;4.70;99.90;;;;;;5052491;28;20455;-89
2022/01/20 01:43:32;;;;;;;4.27;3.30;;;4.70;99.90;;;;;;5058571;28;20443;-88
2022/01/20 01:46:01;;;;;;;2.93;2.63;;;4.70;99.90;;;;;;5054703;28;20456;-88
2022/01/20 01:48:28;;;;;;;5.53;3.30;;;4.70;99.90;;;;;;5055482;28;20464;-88
2022/01/20 01:50:55;;;;;;;4.03;3.63;;;4.70;99.90;;;;;;5055792;28;20452;-88
2022/01/20 01:53:23;;;;;;;3.50;2.93;;;4.70;99.90;;;;;;5059192;28;20921;-89
2022/01/20 01:55:49;;;;;;;3.43;3.13;;;4.80;99.90;;;;;;5058268;28;20448;-88
2022/01/20 01:58:16;;;;;;;3.00;2.70;;;4.80;99.90;;;;;;5046123;28;20479;-89
2022/01/20 02:00:43;;;;;;;3.40;3.10;;;4.70;99.90;;;;;;5049627;28;20984;-89
2022/01/20 02:03:13;;;;;;;5.07;3.50;;;4.80;99.90;;;;;;5051800;28;20545;-89
2022/01/20 02:05:54;;;;;;;3.90;3.50;;;4.80;99.90;;;;;;5051932;28;20579;-88
2022/01/20 02:08:37;;;;;;;4.37;3.00;;;4.80;99.90;;;;;;5053617;28;20639;-88
2022/01/20 02:19:19;;;;;;;2.50;2.30;;;4.80;99.90;;;;;;5045965;28;20463;-88
2022/01/20 02:21:51;;;;;;;3.70;2.67;;;4.80;99.90;;;;;;5048689;28;20452;-88
2022/01/20 02:24:18;;;;;;;2.57;2.07;;;4.80;99.90;;;;;;5053425;28;20931;-88
2022/01/20 02:26:46;;;;;;;2.10;1.90;;;4.80;99.90;;;;;;5050910;28;20821;-87
2022/01/20 02:29:14;;;;;;;4.43;2.90;;;4.80;99.90;;;;;;5054746;28;20478;-88
2022/01/20 02:31:41;;;;;;;3.80;2.60;;;4.80;99.90;;;;;;5048385;28;20464;-88
2022/01/20 02:34:10;;;;;;;2.83;2.53;;;4.80;99.90;;;;;;5050792;28;20433;-88
2022/01/20 02:36:39;;;;;;;3.93;1.93;;;4.80;99.90;;;;;;5051382;28;20475;-88
2022/01/20 02:39:21;;;;;;;2.80;2.20;;;4.80;99.90;;;;;;5046993;28;20469;-89
2022/01/20 02:44:53;;;;;;;2.40;2.17;;;4.80;99.90;;;;;;5061670;28;20435;-88
2022/01/20 02:47:22;;;;;;;2.57;2.33;;;4.80;99.90;;;;;;5049762;28;20996;-88
2022/01/20 02:49:49;;;;;;;3.10;2.80;;;4.90;99.90;;;;;;5049810;28;20960;-88
2022/01/20 02:52:17;;;;;;;2.30;2.07;;;4.80;99.90;;;;;;5048134;28;20829;-88
2022/01/20 02:55:14;;;;;;;2.67;2.47;;;4.90;99.90;;;;;;5052249;28;20459;-88
2022/01/20 02:57:41;;;;;;;3.17;2.67;;;4.90;99.90;;;;;;5045747;28;20491;-88
2022/01/20 03:00:09;;;;;;;1.90;1.70;;;5.00;99.90;;;;;;5055788;28;20440;-89
2022/01/20 03:02:36;;;;;;;1.60;1.50;;;5.10;99.90;;;;;;5052005;28;20986;-88
2022/01/20 03:05:03;;;;;;;2.47;2.27;;;5.10;99.90;;;;;;5045906;28;20448;-89
2022/01/20 03:07:30;;;;;;;4.60;3.00;;;5.10;99.90;;;;;;5045791;28;20452;-88
2022/01/20 03:09:58;;;;;;;7.43;4.57;;;5.10;99.90;;;;;;5056840;28;20458;-89
2022/01/20 03:12:25;;;;;;;3.30;2.57;;;5.20;99.90;;;;;;5054337;28;20440;-88
2022/01/20 03:14:52;;;;;;;3.53;1.83;;;5.10;99.90;;;;;;5045646;28;20526;-88
2022/01/20 03:17:28;;;;;;;;;;;;;;;;;;;;;
2022/01/20 03:19:55;;;;;;;3.20;2.00;;;5.20;99.90;;;;;;5046665;28;20444;-89
2022/01/20 03:22:22;;;;;;;2.20;2.00;;;5.20;99.90;;;;;;5048666;28;20825;-89
2022/01/20 03:24:49;;;;;;;2.40;1.97;;;5.20;99.90;;;;;;5051243;28;20444;-88
2022/01/20 03:27:18;;;;;;;2.30;2.10;;;5.20;99.90;;;;;;5047565;28;21170;-88
2022/01/20 03:29:44;;;;;;;2.73;2.40;;;5.20;99.90;;;;;;5049751;28;20452;-88
2022/01/20 03:32:11;;;;;;;2.20;1.80;;;5.20;99.90;;;;;;5043187;28;20475;-89
2022/01/20 03:34:38;;;;;;;2.77;2.00;;;5.20;99.90;;;;;;5050464;28;20437;-89
2022/01/20 03:37:05;;;;;;;2.80;2.13;;;5.20;99.90;;;;;;5057485;28;20482;-88
2022/01/20 03:39:32;;;;;;;2.20;2.00;;;5.20;99.90;;;;;;5061853;28;20575;-88
2022/01/20 03:41:59;;;;;;;2.50;2.10;;;5.30;99.90;;;;;;5072042;28;20429;-89
2022/01/20 03:44:27;;;;;;;2.50;2.07;;;5.30;99.90;;;;;;5070314;28;20487;-88
2022/01/20 03:46:54;;;;;;;2.33;2.13;;;5.30;99.90;;;;;;5072420;28;20512;-89
2022/01/20 03:49:34;;;;;;;3.83;3.30;;;5.30;99.90;;;;;;5061003;28;20488;-88
2022/01/20 03:52:01;;;;;;;2.50;2.23;;;5.30;99.90;;;;;;5054687;28;20428;-89
2022/01/20 03:54:27;;;;;;;2.70;2.30;;;5.30;99.90;;;;;;5059317;28;20440;-89
2022/01/20 03:56:55;;;;;;;2.97;2.77;;;5.30;99.90;;;;;;5061529;28;20564;-89
2022/01/20 03:59:21;;;;;;;3.13;2.90;;;5.30;99.90;;;;;;5047364;28;20501;-89
2022/01/20 04:01:50;;;;;;;2.83;2.53;;;5.30;99.90;;;;;;5051226;28;20445;-89
2022/01/20 04:04:16;;;;;;;3.00;2.67;;;5.30;99.90;;;;;;5049818;28;20950;-89
2022/01/20 04:06:43;;;;;;;4.00;3.60;;;5.30;99.90;;;;;;5057132;28;20452;-89
2022/01/20 04:09:10;;;;;;;3.93;2.67;;;5.30;99.90;;;;;;5049623;28;20471;-89
2022/01/20 04:11:37;;;;;;;3.90;3.57;;;5.30;99.90;;;;;;5046341;28;20787;-88
2022/01/20 04:14:03;;;;;;;3.60;3.13;;;5.40;99.90;;;;;;5044513;28;20452;-89
2022/01/20 04:16:35;;;;;;;3.60;3.30;;;5.30;99.90;;;;;;5044112;28;21021;-89
2022/01/20 04:19:07;;;;;;;3.37;3.07;;;5.30;99.90;;;;;;5048146;28;20476;-89
2022/01/20 04:21:35;;;;;;;3.43;3.13;;;5.20;99.90;;;;;;5051027;28;20445;-89
2022/01/20 04:24:04;;;;;;;3.40;3.13;;;5.20;99.90;;;;;;5045963;28;20544;-89
2022/01/20 04:26:33;;;;;;;4.23;3.40;;;5.20;99.90;;;;;;5060732;28;20483;-89
2022/01/20 04:29:00;;;;;;;2.87;2.67;;;5.20;99.90;;;;;;5060045;28;20555;-89
2022/01/20 04:31:29;;;;;;;3.10;2.80;;;5.30;99.90;;;;;;5050647;28;20444;-89
2022/01/20 04:33:56;;;;;;;3.63;3.40;;;5.30;99.90;;;;;;5053165;28;21016;-88
2022/01/20 04:36:25;;;;;;;4.10;3.20;;;5.30;99.90;;;;;;5052511;28;20501;-89
2022/01/20 04:38:53;;;;;;;2.60;2.40;;;5.40;99.90;;;;;;5049033;28;21006;-89
2022/01/20 04:41:20;;;;;;;4.37;3.10;;;5.30;99.90;;;;;;5045669;28;20443;-89
2022/01/20 04:43:47;;;;;;;3.20;2.90;;;5.30;99.90;;;;;;5041480;28;20502;-89
2022/01/20 04:46:22;;;;;;;3.90;3.57;;;5.40;99.90;;;;;;5048255;28;20468;-89
2022/01/20 04:49:04;;;;;;;3.30;3.00;;;5.40;99.90;;;;;;5045467;28;20970;-89
2022/01/20 04:57:07;;;;;;;3.50;2.40;;;5.40;99.90;;;;;;5046011;28;20480;-89
2022/01/20 04:59:35;;;;;;;2.90;2.60;;;5.40;99.90;;;;;;5043100;28;20564;-89
2022/01/20 05:02:01;;;;;;;2.77;2.57;;;5.40;99.90;;;;;;5045401;28;20446;-89
2022/01/20 05:04:28;;;;;;;3.80;2.80;;;5.40;99.90;;;;;;5046281;28;20462;-88
2022/01/20 05:06:58;;;;;;;3.37;3.07;;;5.30;99.90;;;;;;5047835;28;20445;-88
2022/01/20 05:09:25;;;;;;;9.93;3.50;;;5.30;99.90;;;;;;5062576;28;21057;-88
2022/01/20 05:11:59;;;;;;;3.17;2.87;;;5.20;99.90;;;;;;5051419;28;20468;-89
2022/01/20 05:14:26;;;;;;;4.07;3.73;;;5.10;99.90;;;;;;5047338;28;20455;-88
2022/01/20 05:16:55;;;;;;;2.97;2.50;;;5.00;99.90;;;;;;5048402;28;20444;-88
2022/01/20 05:19:22;;;;;;;3.10;2.80;;;5.00;99.90;;;;;;5045162;28;20477;-89
2022/01/20 05:21:49;;;;;;;4.10;3.43;;;5.00;99.90;;;;;;5046454;28;20447;-90
2022/01/20 05:24:17;;;;;;;3.67;3.30;;;4.90;99.90;;;;;;5041512;28;20970;-86
2022/01/20 05:26:44;;;;;;;4.10;3.67;;;4.90;99.90;;;;;;5048727;28;20440;-85
2022/01/20 05:29:10;;;;;;;3.30;3.00;;;4.80;99.90;;;;;;5038554;28;20468;-86
2022/01/20 05:31:37;;;;;;;4.40;3.67;;;4.80;99.90;;;;;;5050376;28;20528;-88
2022/01/20 05:34:04;;;;;;;3.10;2.80;;;4.80;99.90;;;;;;5045138;28;20455;-86
2022/01/20 05:36:31;;;;;;;4.00;3.60;;;4.80;99.90;;;;;;5049530;28;20455;-86
2022/01/20 05:38:58;;;;;;;4.10;3.70;;;4.80;99.90;;;;;;5047431;28;20487;-86
2022/01/20 05:41:26;;;;;;;4.30;3.90;;;4.80;99.90;;;;;;5047809;28;20453;-85
2022/01/20 05:43:53;;;;;;;4.00;3.63;;;4.80;99.90;;;;;;5107288;23;20481;-85
2022/01/20 05:46:23;;;;;;;3.70;3.20;;;4.80;99.90;;;;;;5092693;28;20445;-86
2022/01/20 05:48:50;;;;;;;4.00;3.53;;;4.80;99.90;;;;;;5070917;28;20468;-84
2022/01/20 05:51:18;;;;;;;3.50;3.07;;;4.70;99.90;;;;;;5068536;28;20440;-87
2022/01/20 05:53:45;;;;;;;6.87;5.37;;;4.70;99.90;;;;;;5065162;28;20467;-86
2022/01/20 05:56:11;;;;;;;5.13;4.63;;;4.80;99.90;;;;;;5058731;28;20439;-86
2022/01/20 05:58:39;;;;;;;3.60;3.27;;;4.70;99.90;;;;;;5041937;28;20482;-85
2022/01/20 06:01:08;;;;;;;3.53;3.23;;;4.70;99.90;;;;;;5043958;28;20460;-87
2022/01/20 06:03:37;;;;;;;5.00;3.73;;;4.70;99.90;;;;;;5039490;28;20598;-87
2022/01/20 06:06:04;;;;;;;7.47;6.70;;;4.70;99.90;;;;;;5042570;28;20445;-86
2022/01/20 06:08:31;;;;;;;5.63;3.77;;;4.70;99.90;;;;;;5043017;28;20440;-84
2022/01/20 06:11:00;;;;;;;5.50;3.00;;;4.70;99.90;;;;;;5067533;28;20448;-85
2022/01/20 06:13:27;;;;;;;3.40;2.90;;;4.70;99.90;;;;;;5064716;28;20500;-86
2022/01/20 06:15:56;;;;;;;3.73;3.13;;;4.60;99.90;;;;;;5045196;28;20452;-85
2022/01/20 06:18:22;;;;;;;3.57;3.23;;;4.60;99.90;;;;;;5058276;28;20484;-85
2022/01/20 06:20:50;;;;;;;4.67;3.90;;;4.60;99.90;;;;;;5047664;28;20514;-84
2022/01/20 06:23:18;;;;;;;3.80;3.23;;;4.60;99.90;;;;;;5069051;28;20490;-86
2022/01/20 06:25:45;;;;;;;5.00;3.37;;;4.50;99.90;;;;;;5062128;28;20448;-85
2022/01/20 06:28:12;;;;;;;5.07;3.10;;;4.50;99.90;;;;;;5061771;28;20452;-86
2022/01/20 06:30:40;;;;;;;5.07;3.70;;;4.50;99.90;;;;;;5046960;28;20449;-85
2022/01/20 06:33:08;;;;;;;4.70;3.80;;;4.50;99.90;;;;;;5060107;28;20482;-86
2022/01/20 06:35:35;;;;;;;6.17;3.97;;;4.50;99.90;;;;;;5047882;28;20453;-85
2022/01/20 06:38:03;;;;;;;6.30;3.90;;;4.40;99.90;;;;;;5051445;28;20874;-86
2022/01/20 06:40:30;;;;;;;4.77;3.30;;;4.50;99.90;;;;;;5042592;28;20635;-85
2022/01/20 06:42:58;;;;;;;4.73;4.07;;;4.50;99.90;;;;;;5039168;28;20520;-86
2022/01/20 06:45:25;;;;;;;5.73;4.33;;;4.60;99.90;;;;;;5054475;28;20452;-85
2022/01/20 06:47:52;;;;;;;6.23;4.13;;;4.60;99.90;;;;;;5046649;28;20440;-86
2022/01/20 06:50:22;;;;;;;4.17;3.77;;;4.70;99.90;;;;;;5053700;28;20445;-85
2022/01/20 06:52:49;;;;;;;6.47;5.03;;;4.70;99.90;;;;;;5042103;28;20870;-86
2022/01/20 06:55:15;;;;;;;8.40;4.13;;;4.70;99.90;;;;;;5052905;28;20455;-84
2022/01/20 06:57:42;;;;;;;5.70;4.87;;;4.70;99.90;;;;;;5038623;28;20480;-88
2022/01/20 07:00:14;;;;;;;4.27;3.33;;;4.80;99.90;;;;;;5057441;28;20430;-88
2022/01/20 07:02:41;;;;;;;7.37;4.03;;;4.70;99.90;;;;;;5066457;28;20464;-87
2022/01/20 07:05:10;;;;;;;8.00;3.30;;;4.70;99.90;;;;;;5076926;28;20432;-85
2022/01/20 07:07:38;;;;;;;5.40;4.03;;;4.70;99.90;;;;;;5054914;28;20448;-83
2022/01/20 07:10:05;;;;;;;5.40;4.40;;;4.60;99.90;;;;;;5049883;28;20457;-84
2022/01/20 07:12:32;;;;;;;7.73;4.83;;;4.50;99.90;;;;;;5049619;28;20465;-84
2022/01/20 07:14:59;;;;;;;4.20;3.80;;;4.40;99.90;;;;;;5043979;28;20450;-85
2022/01/20 07:17:26;;;;;;;7.33;4.37;;;4.40;99.90;;;;;;5041954;28;20445;-86
2022/01/20 07:19:53;;;;;;;14.37;12.30;;;4.40;99.90;;;;;;5044462;28;20445;-86
2022/01/20 07:22:20;;;;;;;8.80;6.87;;;4.40;99.90;;;;;;5049935;28;20465;-83
2022/01/20 07:24:48;;;;;;;8.07;5.00;;;4.40;99.90;;;;;;5048192;28;20449;-85
2022/01/20 07:27:15;;;;;;;4.90;3.67;;;4.30;99.90;;;;;;5039372;28;20481;-85
2022/01/20 07:29:41;;;;;;;4.73;3.73;;;4.30;99.90;;;;;;5042623;28;20452;-85
2022/01/20 07:32:08;;;;;;;4.67;4.27;;;4.30;99.90;;;;;;5039134;28;20568;-85
2022/01/20 07:34:36;;;;;;;8.70;3.83;;;4.30;99.90;;;;;;5037520;28;20445;-84
2022/01/20 07:37:04;;;;;;;6.37;3.60;;;4.20;99.90;;;;;;5040391;28;20456;-86
2022/01/20 07:39:31;;;;;;;6.00;4.33;;;4.20;99.90;;;;;;5058261;28;20484;-85
2022/01/20 07:41:59;;;;;;;4.50;4.10;;;4.20;99.90;;;;;;5057688;28;20452;-86
2022/01/20 07:44:25;;;;;;;6.57;4.20;;;4.10;99.90;;;;;;5039433;28;20438;-85
2022/01/20 07:46:53;;;;;;;3.97;3.60;;;4.10;99.90;;;;;;5039266;28;20442;-87
2022/01/20 07:49:19;;;;;;;4.63;3.77;;;4.10;99.90;;;;;;5048406;28;20512;-83
2022/01/20 07:51:46;;;;;;;5.43;3.63;;;4.10;99.90;;;;;;5061544;28;20531;-85
2022/01/20 07:54:13;;;;;;;7.50;3.50;;;4.20;99.90;;;;;;5045377;28;20453;-83
2022/01/20 07:56:40;;;;;;;5.93;3.47;;;4.20;99.90;;;;;;5044579;28;20449;-86
2022/01/20 07:59:09;;;;;;;8.43;3.80;;;4.20;99.90;;;;;;5061429;28;20491;-86
2022/01/20 08:01:35;;;;;;;4.80;3.90;;;4.20;99.90;;;;;;5042758;28;20453;-86
2022/01/20 08:04:02;;;;;;;6.03;3.83;;;4.30;99.90;;;;;;5055085;28;20484;-86
2022/01/20 08:06:29;;;;;;;5.30;3.90;;;4.50;99.90;;;;;;5074116;28;20448;-87
2022/01/20 08:08:56;;;;;;;7.47;3.93;;;4.50;99.90;;;;;;5069324;28;20437;-88
2022/01/20 08:11:22;;;;;;;7.20;3.47;;;4.60;99.90;;;;;;5058019;28;20783;-86
2022/01/20 08:13:49;;;;;;;11.83;3.67;;;4.70;99.90;;;;;;5052619;28;20539;-87
2022/01/20 08:16:17;;;;;;;6.43;3.17;;;4.70;99.90;;;;;;5054646;28;20461;-87
2022/01/20 08:18:44;;;;;;;6.60;3.40;;;4.90;99.90;;;;;;5042583;28;20853;-86
2022/01/20 08:21:12;;;;;;;5.43;3.57;;;5.10;99.90;;;;;;5059786;28;20460;-86
2022/01/20 08:26:17;;;;;;;5.87;3.37;;;5.40;99.90;;;;;;5085421;22;20475;-88
2022/01/20 08:31:53;;;;;;;9.30;3.50;;;5.60;99.90;;;;;;5755941;23;20499;-86
2022/01/20 08:34:23;;;;;;;4.80;2.80;;;5.60;99.90;;;;;;5062667;28;20472;-87
2022/01/20 08:37:11;;;;;;;10.10;3.90;;;5.60;99.90;;;;;;5047625;28;20464;-87
2022/01/20 08:39:42;;;;;;;5.37;3.37;;;5.50;99.90;;;;;;5055032;28;20482;-87
2022/01/20 08:44:44;;;;;;;9.10;3.67;;;5.60;99.90;;;;;;5690362;22;20488;-87
2022/01/20 08:47:17;;;;;;;7.03;3.60;;;5.60;99.90;;;;;;5089582;28;20428;-87
2022/01/20 08:49:44;;;;;;;7.50;3.13;;;5.60;99.90;;;;;;5093980;28;20440;-86
2022/01/20 08:52:11;;;;;;;7.50;3.80;;;5.60;99.90;;;;;;5088650;28;20467;-87
2022/01/20 08:54:47;;;;;;;12.10;4.53;;;5.60;99.90;;;;;;5069553;28;20444;-87
2022/01/20 08:57:14;;;;;;;8.47;3.60;;;5.70;99.90;;;;;;5069654;28;20455;-86
2022/01/20 08:59:42;;;;;;;6.80;3.33;;;5.70;99.90;;;;;;5067725;28;20472;-86
2022/01/20 09:02:14;;;;;;;5.90;3.50;;;5.80;99.90;;;;;;5063829;28;20504;-87
2022/01/20 09:04:41;;;;;;;6.00;4.03;;;5.80;99.90;;;;;;5056231;28;20456;-86
2022/01/20 09:07:14;;;;;;;9.83;4.40;;;5.80;99.90;;;;;;5066380;28;20456;-87
2022/01/20 09:10:04;;;;;;;5.20;2.87;;;5.80;99.90;;;;;;5055196;28;21009;-87
2022/01/20 09:15:28;;;;;;;9.50;3.70;;;6.00;99.90;;;;;;5069393;28;20443;-86
2022/01/20 09:17:59;;;;;;;7.17;3.47;;;6.20;99.90;;;;;;5075427;28;20470;-86
2022/01/20 09:20:34;;;;;;;16.20;4.23;;;6.40;99.90;;;;;;5055661;28;20456;-86
2022/01/20 09:23:04;;;;;;;6.57;3.77;;;6.50;99.90;;;;;;5064217;28;20499;-86
2022/01/20 09:25:32;;;;;;;7.70;3.67;;;6.70;99.90;;;;;;5073684;28;20437;-87
2022/01/20 09:28:00;;;;;;;6.30;3.50;;;6.80;99.90;;;;;;5057591;28;20445;-86
2022/01/20 09:30:28;;;;;;;8.67;3.40;;;6.80;99.90;;;;;;5062749;28;20444;-87
2022/01/20 09:36:19;;;;;;;8.07;4.53;;;7.00;99.90;;;;;;5050234;28;20447;-85
2022/01/20 09:38:55;;;;;;;6.37;3.53;;;7.00;99.90;;;;;;5070126;28;20472;-87
2022/01/20 09:41:22;;;;;;;7.30;3.20;;;7.00;99.90;;;;;;5062537;28;20436;-87
2022/01/20 09:46:35;;;;;;;6.50;3.73;;;6.70;99.90;;;;;;5070861;28;20500;-87
2022/01/20 09:54:34;;;;;;;9.07;3.90;;;6.50;99.90;;;;;;5089413;28;20505;-87
2022/01/20 10:03:05;;;;;;;11.13;4.30;;;6.60;99.90;;;;;;5321149;22;20502;-88
2022/01/20 10:05:45;;;;;;;11.73;7.10;;;6.60;99.90;;;;;;5073307;28;20496;-86
2022/01/20 10:08:35;;;;;;;8.13;3.63;;;6.70;99.90;;;;;;5076677;28;20444;-87
2022/01/20 10:11:06;;;;;;;12.83;4.10;;;6.60;99.90;;;;;;5078211;28;20750;-86
2022/01/20 10:13:36;;;;;;;9.73;3.83;;;6.50;99.90;;;;;;5072904;28;20479;-85
2022/01/20 10:16:06;;;;;;;7.63;3.73;;;6.50;99.90;;;;;;5066061;28;20953;-86
2022/01/20 10:18:35;;;;;;;11.50;3.93;;;6.50;99.90;;;;;;5061275;28;20545;-87
2022/01/20 10:21:05;;;;;;;26.93;4.70;;;6.50;99.90;;;;;;5062763;28;20445;-85
2022/01/20 10:23:35;;;;;;;8.17;4.87;;;6.50;99.90;;;;;;5063080;28;20460;-86
2022/01/20 10:26:07;;;;;;;17.53;7.93;;;6.60;99.90;;;;;;5064207;28;20448;-87
2022/01/20 10:28:49;;;;;;;7.50;4.33;;;6.60;99.90;;;;;;5066881;28;20436;-86
2022/01/20 10:31:16;;;;;;;8.87;4.57;;;6.60;99.90;;;;;;5062598;28;20452;-86
2022/01/20 10:33:43;;;;;;;8.57;4.03;;;6.50;99.90;;;;;;5049333;28;20994;-86
2022/01/20 10:36:13;;;;;;;10.20;5.60;;;6.50;99.90;;;;;;5047581;28;20894;-86
2022/01/20 10:38:50;;;;;;;12.03;5.00;;;6.50;99.90;;;;;;5063852;28;20464;-86
2022/01/20 10:41:28;;;;;;;12.90;4.80;;;6.50;99.90;;;;;;5062945;28;20531;-87
2022/01/20 10:44:02;;;;;;;9.37;4.40;;;6.50;99.90;;;;;;5068363;28;20483;-85
2022/01/20 10:46:29;;;;;;;10.80;4.77;;;6.70;99.90;;;;;;5066307;28;20455;-86
2022/01/20 10:49:00;;;;;;;13.40;5.00;;;6.80;99.90;;;;;;5061521;28;20440;-85
2022/01/20 10:51:28;;;;;;;6.80;4.17;;;6.80;99.90;;;;;;5068199;28;20448;-86
2022/01/20 10:54:02;;;;;;;7.67;4.60;;;6.90;99.90;;;;;;5062832;28;20990;-88
2022/01/20 10:56:29;;;;;;;11.87;4.80;;;7.00;99.90;;;;;;5061696;28;20460;-86
2022/01/20 10:59:06;;;;;;;5.70;4.87;;;7.20;99.90;;;;;;5060337;28;20483;-87
2022/01/20 11:01:32;;;;;;;11.53;6.00;;;7.50;99.90;;;;;;5057759;28;20443;-87
2022/01/20 11:04:00;;;;;;;9.80;4.27;;;7.70;99.90;;;;;;5056549;28;20868;-86
2022/01/20 11:06:30;;;;;;;9.83;5.30;;;7.80;99.90;;;;;;5053965;28;20456;-88
2022/01/20 11:08:57;;;;;;;14.43;4.47;;;7.90;99.90;;;;;;5059552;28;20444;-87
2022/01/20 11:11:23;;;;;;;8.03;4.07;;;7.70;99.90;;;;;;5058019;28;20508;-86
2022/01/20 11:13:50;;;;;;;10.20;4.60;;;7.70;99.90;;;;;;5058745;28;21001;-85
2022/01/20 11:16:18;;;;;;;9.30;4.30;;;7.50;99.90;;;;;;5068645;28;20449;-84
2022/01/20 11:18:45;;;;;;;8.63;4.33;;;7.40;99.90;;;;;;5068742;28;20455;-86
2022/01/20 11:21:23;;;;;;;7.53;3.70;;;7.20;99.90;;;;;;5064775;28;20449;-85
2022/01/20 11:23:51;;;;;;;9.43;4.27;;;7.10;99.90;;;;;;5071667;28;20448;-87
2022/01/20 11:26:18;;;;;;;13.43;5.10;;;7.00;99.90;;;;;;5076789;28;20436;-85
2022/01/20 11:28:58;;;;;;;12.00;4.80;;;6.90;99.90;;;;;;5062398;28;20510;-85
2022/01/20 11:31:30;;;;;;;10.10;4.63;;;6.90;99.90;;;;;;5068780;28;20528;-87
2022/01/20 11:33:57;;;;;;;10.27;5.30;;;6.90;99.90;;;;;;5075606;28;20470;-86
2022/01/20 11:36:26;;;;;;;10.07;5.03;;;7.00;99.90;;;;;;5069966;28;20830;-87
2022/01/20 11:39:01;;;;;;;6.50;4.43;;;7.20;99.90;;;;;;5061057;28;20493;-86
2022/01/20 11:41:35;;;;;;;9.57;4.50;;;7.20;99.90;;;;;;5064366;28;20448;-86
2022/01/20 11:44:09;;;;;;;8.63;5.07;;;7.30;99.90;;;;;;5085363;23;20483;-89
2022/01/20 11:46:39;;;;;;;20.47;5.80;;;7.60;99.90;;;;;;5056541;28;20506;-88
2022/01/20 11:49:08;;;;;;;4.63;4.20;;;7.90;99.90;;;;;;5066424;28;20440;-89
2022/01/20 11:51:48;;;;;;;7.73;5.60;;;9.20;99.80;;;;;;5059076;28;20444;-89
2022/01/20 11:54:32;;;;;;;7.70;5.23;;;10.70;96.30;;;;;;5058745;28;20458;-88
2022/01/20 11:57:09;;;;;;;8.53;4.37;;;10.80;93.90;;;;;;5039872;28;20438;-89
2022/01/20 11:59:39;;;;;;;8.40;3.73;;;11.40;93.80;;;;;;5040488;28;20469;-89
2022/01/20 12:02:06;;;;;;;9.37;4.00;;;12.10;91.30;;;;;;5057467;28;20436;-88
2022/01/20 12:04:34;;;;;;;6.40;4.63;;;13.30;90.60;;;;;;5058275;28;20519;-89
2022/01/20 12:07:01;;;;;;;10.23;4.53;;;14.50;82.80;;;;;;5058099;28;20434;-89
2022/01/20 12:09:33;;;;;;;8.93;3.67;;;13.50;81.10;;;;;;5058145;28;20464;-89
2022/01/20 12:12:00;;;;;;;5.40;3.40;;;11.90;83.40;;;;;;5072146;28;20472;-89
2022/01/20 12:14:35;;;;;;;8.43;4.90;;;10.70;87.30;;;;;;5069777;28;20475;-89
2022/01/20 12:17:07;;;;;;;8.20;4.80;;;9.80;90.90;;;;;;5076638;28;20440;-89
2022/01/20 12:19:34;;;;;;;9.13;4.30;;;9.20;92.10;;;;;;5076759;28;20543;-89
2022/01/20 12:22:04;;;;;;;3.20;1.57;;;8.90;93.10;;;;;;5076743;28;20439;-89
2022/01/20 12:24:35;;;;;;;2.20;1.10;;;8.40;94.10;;;;;;5070518;28;20479;-90
2022/01/20 12:27:02;;;;;;;2.47;1.77;;;7.60;96.30;;;;;;5062201;28;20465;-89
2022/01/20 12:29:36;;;;;;;3.03;1.97;;;6.70;98.80;;;;;;5060521;28;20444;-89
2022/01/20 12:32:11;;;;;;;2.30;1.00;;;6.10;99.90;;;;;;5062406;28;20449;-89
2022/01/20 12:34:38;;;;;;;4.90;2.13;;;5.50;99.90;;;;;;5061274;28;20466;-89
2022/01/20 12:37:05;;;;;;;4.67;2.13;;;5.20;99.90;;;;;;5059556;28;20440;-89
2022/01/20 12:39:36;;;;;;;9.40;2.50;;;4.90;99.90;;;;;;5060806;28;20510;-89
2022/01/20 12:42:06;;;;;;;4.80;1.60;;;4.70;99.90;;;;;;5058599;28;20471;-89
2022/01/20 12:44:48;;;;;;;8.30;2.30;;;4.60;99.90;;;;;;5059518;28;20478;-89
2022/01/20 12:47:15;;;;;;;5.10;2.80;;;4.50;99.90;;;;;;5065446;28;20454;-88
2022/01/20 12:49:42;;;;;;;6.00;2.73;;;4.50;99.90;;;;;;5077066;28;20518;-89
2022/01/20 12:52:10;;;;;;;5.43;2.30;;;4.40;99.90;;;;;;5081118;28;20439;-89
2022/01/20 12:54:39;;;;;;;4.83;2.20;;;4.50;99.90;;;;;;5080475;28;20439;-89
2022/01/20 12:57:08;;;;;;;8.00;2.77;;;4.50;99.90;;;;;;5080886;28;20445;-89
2022/01/20 12:59:36;;;;;;;8.10;3.17;;;4.60;99.90;;;;;;5066731;28;20464;-89
2022/01/20 13:02:07;;;;;;;3.43;2.60;;;4.60;99.90;;;;;;5062319;28;20458;-90
2022/01/20 13:04:38;;;;;;;5.17;2.67;;;4.50;99.90;;;;;;5061632;28;20924;-89
2022/01/20 13:07:07;;;;;;;4.20;2.30;;;4.60;99.90;;;;;;5060594;28;20469;-89
2022/01/20 13:09:43;;;;;;;4.27;2.40;;;4.60;99.90;;;;;;5061043;28;20912;-90
2022/01/20 13:12:16;;;;;;;8.67;2.80;;;4.60;99.90;;;;;;5062152;28;20459;-89
2022/01/20 13:14:48;;;;;;;3.90;2.30;;;4.60;99.90;;;;;;5062444;28;20443;-90
2022/01/20 13:17:24;;;;;;;8.40;3.40;;;4.60;99.90;;;;;;5061895;28;20446;-89
2022/01/20 13:19:58;;;;;;;7.70;4.63;;;4.40;99.90;;;;;;5062345;28;20504;-89
2022/01/20 13:22:39;;;;;;;9.97;3.80;;;4.40;99.90;;;;;;5063215;28;20451;-89
2022/01/20 13:25:09;;;;;;;4.43;2.60;;;4.50;99.90;;;;;;5061533;28;20898;-88
2022/01/20 13:27:38;;;;;;;10.10;4.80;;;4.50;99.90;;;;;;5061559;28;20835;-89
2022/01/20 13:30:09;;;;;;;12.77;6.17;;;4.50;99.90;;;;;;5061749;28;20455;-89
2022/01/20 13:32:49;;;;;;;11.53;4.90;;;4.50;99.90;;;;;;5061312;28;21010;-89
2022/01/20 13:35:16;;;;;;;9.10;3.77;;;4.50;99.90;;;;;;5064135;28;20504;-89
2022/01/20 13:37:47;;;;;;;15.77;3.77;;;4.50;99.90;;;;;;5067491;28;20483;-90
2022/01/20 13:40:20;;;;;;;8.77;3.70;;;4.50;99.90;;;;;;5063245;28;20907;-88
2022/01/20 13:45:01;;;;;;;8.60;4.00;;;4.50;99.90;;;;;;5069747;28;20485;-88
2022/01/20 13:45:38;;;;;;;8.57;4.73;;;4.40;99.90;;;;;;5062293;28;20446;-88
2022/01/20 13:48:06;;;;;;;4.47;3.57;;;4.40;99.90;;;;;;5062173;28;20450;-88
2022/01/20 13:50:35;;;;;;;6.73;2.50;;;4.40;99.90;;;;;;5062140;28;20498;-87
2022/01/20 13:53:10;;;;;;;6.50;3.20;;;4.30;99.90;;;;;;5062850;28;20455;-89
2022/01/20 13:55:40;;;;;;;5.03;2.73;;;4.40;99.90;;;;;;5059623;28;20459;-88
2022/01/20 13:58:21;;;;;;;6.23;3.13;;;4.30;99.90;;;;;;5062788;28;20451;-87
2022/01/20 14:00:51;;;;;;;10.43;4.80;;;4.30;99.90;;;;;;5063881;28;20471;-88
2022/01/20 14:03:22;;;;;;;14.93;6.60;;;4.40;99.90;;;;;;5064755;28;20438;-89
2022/01/20 14:05:50;;;;;;;6.33;3.93;;;4.40;99.90;;;;;;5069307;28;20454;-88
2022/01/20 14:08:18;;;;;;;8.53;4.50;;;4.40;99.90;;;;;;5064150;28;20964;-89
2022/01/20 14:10:49;;;;;;;8.03;2.83;;;4.40;99.90;;;;;;5064205;28;20451;-88
2022/01/20 14:13:16;;;;;;;8.50;5.10;;;4.50;99.90;;;;;;5060920;28;20468;-88
2022/01/20 14:15:43;;;;;;;9.13;4.27;;;4.50;99.90;;;;;;5061265;28;20469;-89
2022/01/20 14:18:19;;;;;;;9.17;3.97;;;4.60;99.90;;;;;;5059550;28;20450;-89
2022/01/20 14:20:47;;;;;;;4.50;2.93;;;4.60;99.90;;;;;;5058589;28;20482;-88
2022/01/20 14:23:16;;;;;;;8.37;4.03;;;4.50;99.90;;;;;;5064554;28;20753;-89
2022/01/20 14:25:46;;;;;;;7.10;4.30;;;4.50;99.90;;;;;;5062487;28;20447;-87